sensor_id;sensor_type;location;lat;lon;timestamp;P1;durP1;ratioP1;P2;durP2;ratioP2
35326;SDS011;21436;52.348;20.928;2023-03-14T00:01:31;11.57;;;6.10;;
35326;SDS011;21436;52.348;20.928;2023-03-14T00:03:59;14.13;;;6.25;;
35326;SDS011;21436;52.348;20.928;2023-03-14T00:06:27;16.88;;;6.53;;
35326;SDS011;21436;52.348;20.928;2023-03-14T00:08:55;11.75;;;6.22;;
35326;SDS011;21436;52.348;20.928;2023-03-14T00:11:24;12.20;;;6.22;;
35326;SDS011;21436;52.348;20.928;2023-03-14T00:13:52;12.27;;;5.93;;
35326;SDS011;21436;52.348;20.928;2023-03-14T00:16:21;12.93;;;6.35;;
35326;SDS011;21436;52.348;20.928;2023-03-14T00:18:49;12.18;;;6.20;;
35326;SDS011;21436;52.348;20.928;2023-03-14T00:21:17;12.23;;;5.78;;
35326;SDS011;21436;52.348;20.928;2023-03-14T00:23:45;15.57;;;6.53;;
35326;SDS011;21436;52.348;20.928;2023-03-14T00:26:15;13.48;;;5.88;;
35326;SDS011;21436;52.348;20.928;2023-03-14T00:28:44;15.63;;;5.57;;
35326;SDS011;21436;52.348;20.928;2023-03-14T00:31:14;11.68;;;5.63;;
35326;SDS011;21436;52.348;20.928;2023-03-14T00:33:43;13.13;;;5.55;;
35326;SDS011;21436;52.348;20.928;2023-03-14T00:36:13;14.23;;;6.53;;
35326;SDS011;21436;52.348;20.928;2023-03-14T00:38:45;11.93;;;6.00;;
35326;SDS011;21436;52.348;20.928;2023-03-14T00:41:15;13.15;;;5.72;;
35326;SDS011;21436;52.348;20.928;2023-03-14T00:43:45;13.30;;;5.63;;
35326;SDS011;21436;52.348;20.928;2023-03-14T00:46:13;10.63;;;5.82;;
35326;SDS011;21436;52.348;20.928;2023-03-14T00:48:44;17.35;;;7.13;;
35326;SDS011;21436;52.348;20.928;2023-03-14T00:51:13;14.25;;;6.65;;
35326;SDS011;21436;52.348;20.928;2023-03-14T00:53:43;15.93;;;6.68;;
35326;SDS011;21436;52.348;20.928;2023-03-14T00:56:12;11.60;;;6.05;;
35326;SDS011;21436;52.348;20.928;2023-03-14T00:58:40;12.27;;;6.80;;
35326;SDS011;21436;52.348;20.928;2023-03-14T01:01:12;14.57;;;7.03;;
35326;SDS011;21436;52.348;20.928;2023-03-14T01:03:42;16.08;;;5.78;;
35326;SDS011;21436;52.348;20.928;2023-03-14T01:06:12;10.85;;;5.95;;
35326;SDS011;21436;52.348;20.928;2023-03-14T01:08:44;13.73;;;6.47;;
35326;SDS011;21436;52.348;20.928;2023-03-14T01:11:15;15.20;;;6.65;;
35326;SDS011;21436;52.348;20.928;2023-03-14T01:13:45;15.73;;;7.10;;
35326;SDS011;21436;52.348;20.928;2023-03-14T01:16:14;13.05;;;6.65;;
35326;SDS011;21436;52.348;20.928;2023-03-14T01:18:43;14.88;;;6.75;;
35326;SDS011;21436;52.348;20.928;2023-03-14T01:21:13;15.75;;;6.70;;
35326;SDS011;21436;52.348;20.928;2023-03-14T01:23:47;15.35;;;6.47;;
35326;SDS011;21436;52.348;20.928;2023-03-14T01:26:17;11.98;;;6.93;;
35326;SDS011;21436;52.348;20.928;2023-03-14T01:28:47;14.18;;;6.82;;
35326;SDS011;21436;52.348;20.928;2023-03-14T01:31:18;13.20;;;6.55;;
35326;SDS011;21436;52.348;20.928;2023-03-14T01:33:46;15.20;;;6.70;;
35326;SDS011;21436;52.348;20.928;2023-03-14T01:36:14;16.13;;;7.40;;
35326;SDS011;21436;52.348;20.928;2023-03-14T01:38:44;15.05;;;7.50;;
35326;SDS011;21436;52.348;20.928;2023-03-14T01:41:16;17.67;;;7.78;;
35326;SDS011;21436;52.348;20.928;2023-03-14T01:43:46;13.52;;;6.72;;
35326;SDS011;21436;52.348;20.928;2023-03-14T01:46:20;14.50;;;6.65;;
35326;SDS011;21436;52.348;20.928;2023-03-14T01:57:30;13.30;;;7.55;;
35326;SDS011;21436;52.348;20.928;2023-03-14T01:59:59;16.70;;;7.63;;
35326;SDS011;21436;52.348;20.928;2023-03-14T02:02:43;13.57;;;7.00;;
35326;SDS011;21436;52.348;20.928;2023-03-14T02:05:16;18.73;;;6.57;;
35326;SDS011;21436;52.348;20.928;2023-03-14T02:07:53;13.90;;;6.75;;
35326;SDS011;21436;52.348;20.928;2023-03-14T02:10:27;12.43;;;6.60;;
35326;SDS011;21436;52.348;20.928;2023-03-14T02:13:01;14.35;;;7.80;;
35326;SDS011;21436;52.348;20.928;2023-03-14T02:15:40;14.60;;;7.60;;
35326;SDS011;21436;52.348;20.928;2023-03-14T02:18:19;17.42;;;7.05;;
35326;SDS011;21436;52.348;20.928;2023-03-14T02:29:53;13.68;;;7.30;;
35326;SDS011;21436;52.348;20.928;2023-03-14T02:32:22;10.98;;;6.50;;
35326;SDS011;21436;52.348;20.928;2023-03-14T02:34:54;15.60;;;7.15;;
35326;SDS011;21436;52.348;20.928;2023-03-14T02:40:12;16.38;;;6.78;;
35326;SDS011;21436;52.348;20.928;2023-03-14T02:42:41;18.90;;;7.88;;
35326;SDS011;21436;52.348;20.928;2023-03-14T02:47:46;12.10;;;6.30;;
35326;SDS011;21436;52.348;20.928;2023-03-14T02:50:20;10.85;;;6.65;;
35326;SDS011;21436;52.348;20.928;2023-03-14T02:52:49;13.95;;;7.13;;
35326;SDS011;21436;52.348;20.928;2023-03-14T02:55:21;13.32;;;7.18;;
35326;SDS011;21436;52.348;20.928;2023-03-14T02:57:52;11.80;;;6.88;;
35326;SDS011;21436;52.348;20.928;2023-03-14T03:00:21;16.33;;;6.72;;
35326;SDS011;21436;52.348;20.928;2023-03-14T03:02:48;13.88;;;6.60;;
35326;SDS011;21436;52.348;20.928;2023-03-14T03:05:17;15.88;;;6.22;;
35326;SDS011;21436;52.348;20.928;2023-03-14T03:07:45;16.02;;;6.88;;
35326;SDS011;21436;52.348;20.928;2023-03-14T03:10:14;17.75;;;7.70;;
35326;SDS011;21436;52.348;20.928;2023-03-14T03:12:42;16.10;;;7.25;;
35326;SDS011;21436;52.348;20.928;2023-03-14T03:15:11;12.30;;;6.70;;
35326;SDS011;21436;52.348;20.928;2023-03-14T03:17:39;15.82;;;7.43;;
35326;SDS011;21436;52.348;20.928;2023-03-14T03:20:08;11.93;;;6.55;;
35326;SDS011;21436;52.348;20.928;2023-03-14T03:22:38;13.38;;;6.43;;
35326;SDS011;21436;52.348;20.928;2023-03-14T03:25:09;16.50;;;6.93;;
35326;SDS011;21436;52.348;20.928;2023-03-14T03:27:37;16.80;;;7.57;;
35326;SDS011;21436;52.348;20.928;2023-03-14T03:30:06;15.20;;;7.22;;
35326;SDS011;21436;52.348;20.928;2023-03-14T03:32:35;15.88;;;7.20;;
35326;SDS011;21436;52.348;20.928;2023-03-14T03:35:05;14.95;;;7.13;;
35326;SDS011;21436;52.348;20.928;2023-03-14T03:37:37;14.85;;;6.90;;
35326;SDS011;21436;52.348;20.928;2023-03-14T03:40:07;13.52;;;6.68;;
35326;SDS011;21436;52.348;20.928;2023-03-14T03:42:36;18.25;;;6.60;;
35326;SDS011;21436;52.348;20.928;2023-03-14T03:45:08;11.93;;;6.43;;
35326;SDS011;21436;52.348;20.928;2023-03-14T03:47:43;14.13;;;6.40;;
35326;SDS011;21436;52.348;20.928;2023-03-14T03:50:12;15.43;;;7.22;;
35326;SDS011;21436;52.348;20.928;2023-03-14T03:52:40;14.80;;;6.85;;
35326;SDS011;21436;52.348;20.928;2023-03-14T03:55:08;16.08;;;6.70;;
35326;SDS011;21436;52.348;20.928;2023-03-14T03:57:36;14.70;;;6.68;;
35326;SDS011;21436;52.348;20.928;2023-03-14T04:00:04;14.40;;;6.68;;
35326;SDS011;21436;52.348;20.928;2023-03-14T04:02:41;13.57;;;5.82;;
35326;SDS011;21436;52.348;20.928;2023-03-14T04:05:15;17.05;;;7.15;;
35326;SDS011;21436;52.348;20.928;2023-03-14T04:07:57;13.82;;;5.90;;
35326;SDS011;21436;52.348;20.928;2023-03-14T04:10:28;11.45;;;6.18;;
35326;SDS011;21436;52.348;20.928;2023-03-14T04:13:07;14.73;;;6.90;;
35326;SDS011;21436;52.348;20.928;2023-03-14T04:15:38;13.77;;;6.22;;
35326;SDS011;21436;52.348;20.928;2023-03-14T04:18:18;12.43;;;5.88;;
35326;SDS011;21436;52.348;20.928;2023-03-14T04:20:50;11.30;;;5.43;;
35326;SDS011;21436;52.348;20.928;2023-03-14T04:23:22;12.57;;;6.18;;
35326;SDS011;21436;52.348;20.928;2023-03-14T04:25:52;13.13;;;5.20;;
35326;SDS011;21436;52.348;20.928;2023-03-14T04:28:22;11.00;;;5.65;;
35326;SDS011;21436;52.348;20.928;2023-03-14T04:30:50;8.50;;;5.10;;
35326;SDS011;21436;52.348;20.928;2023-03-14T04:33:21;9.93;;;5.05;;
35326;SDS011;21436;52.348;20.928;2023-03-14T04:35:54;8.93;;;4.67;;
35326;SDS011;21436;52.348;20.928;2023-03-14T04:38:22;11.05;;;5.00;;
35326;SDS011;21436;52.348;20.928;2023-03-14T04:40:51;12.55;;;5.05;;
35326;SDS011;21436;52.348;20.928;2023-03-14T04:43:22;12.88;;;5.28;;
35326;SDS011;21436;52.348;20.928;2023-03-14T04:45:55;12.50;;;5.13;;
35326;SDS011;21436;52.348;20.928;2023-03-14T04:48:24;9.85;;;4.93;;
35326;SDS011;21436;52.348;20.928;2023-03-14T04:50:54;8.98;;;5.20;;
35326;SDS011;21436;52.348;20.928;2023-03-14T04:53:23;9.77;;;5.15;;
35326;SDS011;21436;52.348;20.928;2023-03-14T04:55:55;10.57;;;5.28;;
35326;SDS011;21436;52.348;20.928;2023-03-14T04:58:26;8.52;;;5.03;;
35326;SDS011;21436;52.348;20.928;2023-03-14T05:01:01;12.13;;;5.20;;
35326;SDS011;21436;52.348;20.928;2023-03-14T05:03:50;13.40;;;4.90;;
35326;SDS011;21436;52.348;20.928;2023-03-14T05:06:28;11.57;;;5.20;;
35326;SDS011;21436;52.348;20.928;2023-03-14T05:09:19;9.95;;;5.30;;
35326;SDS011;21436;52.348;20.928;2023-03-14T05:11:47;11.27;;;5.28;;
35326;SDS011;21436;52.348;20.928;2023-03-14T05:14:33;8.65;;;4.78;;
35326;SDS011;21436;52.348;20.928;2023-03-14T05:17:07;12.63;;;5.10;;
35326;SDS011;21436;52.348;20.928;2023-03-14T05:20:08;8.88;;;4.10;;
35326;SDS011;21436;52.348;20.928;2023-03-14T05:22:58;9.32;;;5.00;;
35326;SDS011;21436;52.348;20.928;2023-03-14T05:25:49;9.07;;;4.85;;
35326;SDS011;21436;52.348;20.928;2023-03-14T05:28:29;8.05;;;4.35;;
35326;SDS011;21436;52.348;20.928;2023-03-14T05:31:24;8.82;;;4.70;;
35326;SDS011;21436;52.348;20.928;2023-03-14T05:34:07;11.63;;;4.60;;
35326;SDS011;21436;52.348;20.928;2023-03-14T05:36:48;11.27;;;4.43;;
35326;SDS011;21436;52.348;20.928;2023-03-14T05:39:33;9.98;;;4.15;;
35326;SDS011;21436;52.348;20.928;2023-03-14T05:42:21;9.05;;;4.32;;
35326;SDS011;21436;52.348;20.928;2023-03-14T05:44:59;9.32;;;4.72;;
35326;SDS011;21436;52.348;20.928;2023-03-14T05:47:50;8.23;;;4.18;;
35326;SDS011;21436;52.348;20.928;2023-03-14T05:50:33;8.63;;;4.30;;
35326;SDS011;21436;52.348;20.928;2023-03-14T05:53:21;8.52;;;4.55;;
35326;SDS011;21436;52.348;20.928;2023-03-14T05:55:51;8.20;;;4.22;;
35326;SDS011;21436;52.348;20.928;2023-03-14T05:58:42;8.93;;;4.78;;
35326;SDS011;21436;52.348;20.928;2023-03-14T06:01:24;12.75;;;5.20;;
35326;SDS011;21436;52.348;20.928;2023-03-14T06:04:09;17.80;;;5.28;;
35326;SDS011;21436;52.348;20.928;2023-03-14T06:06:38;7.65;;;4.43;;
35326;SDS011;21436;52.348;20.928;2023-03-14T06:09:08;10.23;;;5.25;;
35326;SDS011;21436;52.348;20.928;2023-03-14T06:11:38;9.60;;;4.65;;
35326;SDS011;21436;52.348;20.928;2023-03-14T06:14:07;10.82;;;5.03;;
35326;SDS011;21436;52.348;20.928;2023-03-14T06:16:42;7.00;;;4.07;;
35326;SDS011;21436;52.348;20.928;2023-03-14T06:19:11;8.95;;;3.80;;
35326;SDS011;21436;52.348;20.928;2023-03-14T06:21:40;8.93;;;4.78;;
35326;SDS011;21436;52.348;20.928;2023-03-14T06:24:09;11.77;;;4.82;;
35326;SDS011;21436;52.348;20.928;2023-03-14T06:26:45;8.07;;;4.43;;
35326;SDS011;21436;52.348;20.928;2023-03-14T06:29:14;9.25;;;4.80;;
35326;SDS011;21436;52.348;20.928;2023-03-14T06:31:42;8.32;;;4.65;;
35326;SDS011;21436;52.348;20.928;2023-03-14T06:34:16;15.00;;;5.00;;
35326;SDS011;21436;52.348;20.928;2023-03-14T06:36:45;18.05;;;5.60;;
35326;SDS011;21436;52.348;20.928;2023-03-14T06:39:13;11.93;;;5.05;;
35326;SDS011;21436;52.348;20.928;2023-03-14T06:41:45;12.82;;;5.10;;
35326;SDS011;21436;52.348;20.928;2023-03-14T06:44:13;10.15;;;4.75;;
35326;SDS011;21436;52.348;20.928;2023-03-14T06:46:41;10.40;;;4.97;;
35326;SDS011;21436;52.348;20.928;2023-03-14T06:49:09;9.55;;;4.72;;
35326;SDS011;21436;52.348;20.928;2023-03-14T06:51:39;6.95;;;4.28;;
35326;SDS011;21436;52.348;20.928;2023-03-14T06:54:08;11.73;;;4.20;;
35326;SDS011;21436;52.348;20.928;2023-03-14T06:56:37;9.63;;;4.38;;
35326;SDS011;21436;52.348;20.928;2023-03-14T06:59:05;9.45;;;5.50;;
35326;SDS011;21436;52.348;20.928;2023-03-14T07:01:36;8.32;;;5.25;;
35326;SDS011;21436;52.348;20.928;2023-03-14T07:04:08;7.82;;;4.57;;
35326;SDS011;21436;52.348;20.928;2023-03-14T07:06:40;9.27;;;4.95;;
35326;SDS011;21436;52.348;20.928;2023-03-14T07:09:11;9.65;;;5.40;;
35326;SDS011;21436;52.348;20.928;2023-03-14T07:11:44;11.63;;;5.05;;
35326;SDS011;21436;52.348;20.928;2023-03-14T07:14:13;9.73;;;4.85;;
35326;SDS011;21436;52.348;20.928;2023-03-14T07:16:41;10.13;;;4.72;;
35326;SDS011;21436;52.348;20.928;2023-03-14T07:19:09;8.73;;;4.13;;
35326;SDS011;21436;52.348;20.928;2023-03-14T07:21:38;10.27;;;4.35;;
35326;SDS011;21436;52.348;20.928;2023-03-14T07:24:09;9.40;;;4.70;;
35326;SDS011;21436;52.348;20.928;2023-03-14T07:26:38;10.00;;;4.40;;
35326;SDS011;21436;52.348;20.928;2023-03-14T07:29:06;12.73;;;4.30;;
35326;SDS011;21436;52.348;20.928;2023-03-14T07:31:34;7.30;;;4.20;;
35326;SDS011;21436;52.348;20.928;2023-03-14T07:34:02;10.77;;;4.50;;
35326;SDS011;21436;52.348;20.928;2023-03-14T07:36:36;10.68;;;4.78;;
35326;SDS011;21436;52.348;20.928;2023-03-14T07:39:04;12.35;;;4.80;;
35326;SDS011;21436;52.348;20.928;2023-03-14T07:41:38;11.90;;;5.38;;
35326;SDS011;21436;52.348;20.928;2023-03-14T07:44:45;9.77;;;5.07;;
35326;SDS011;21436;52.348;20.928;2023-03-14T07:47:13;15.60;;;5.07;;
35326;SDS011;21436;52.348;20.928;2023-03-14T07:49:40;8.30;;;4.72;;
35326;SDS011;21436;52.348;20.928;2023-03-14T07:52:09;9.02;;;4.97;;
35326;SDS011;21436;52.348;20.928;2023-03-14T07:54:36;11.40;;;5.10;;
35326;SDS011;21436;52.348;20.928;2023-03-14T07:57:05;9.38;;;4.82;;
35326;SDS011;21436;52.348;20.928;2023-03-14T07:59:33;8.82;;;5.03;;
35326;SDS011;21436;52.348;20.928;2023-03-14T08:02:01;12.50;;;5.32;;
35326;SDS011;21436;52.348;20.928;2023-03-14T08:04:29;14.32;;;5.22;;
35326;SDS011;21436;52.348;20.928;2023-03-14T08:06:57;11.02;;;5.28;;
35326;SDS011;21436;52.348;20.928;2023-03-14T08:09:25;10.15;;;4.63;;
35326;SDS011;21436;52.348;20.928;2023-03-14T08:11:54;9.18;;;5.25;;
35326;SDS011;21436;52.348;20.928;2023-03-14T08:14:24;11.88;;;5.03;;
35326;SDS011;21436;52.348;20.928;2023-03-14T08:16:52;16.75;;;5.03;;
35326;SDS011;21436;52.348;20.928;2023-03-14T08:19:20;13.57;;;5.65;;
35326;SDS011;21436;52.348;20.928;2023-03-14T08:21:48;10.50;;;4.78;;
35326;SDS011;21436;52.348;20.928;2023-03-14T08:24:16;9.77;;;4.45;;
35326;SDS011;21436;52.348;20.928;2023-03-14T08:26:44;10.32;;;4.55;;
35326;SDS011;21436;52.348;20.928;2023-03-14T08:29:12;8.20;;;4.30;;
35326;SDS011;21436;52.348;20.928;2023-03-14T08:31:40;12.45;;;4.97;;
35326;SDS011;21436;52.348;20.928;2023-03-14T08:34:09;9.93;;;4.28;;
35326;SDS011;21436;52.348;20.928;2023-03-14T08:36:37;7.55;;;4.18;;
35326;SDS011;21436;52.348;20.928;2023-03-14T08:39:05;16.33;;;4.30;;
35326;SDS011;21436;52.348;20.928;2023-03-14T08:41:35;6.82;;;3.78;;
35326;SDS011;21436;52.348;20.928;2023-03-14T08:44:07;7.15;;;3.70;;
35326;SDS011;21436;52.348;20.928;2023-03-14T08:46:36;7.63;;;3.75;;
35326;SDS011;21436;52.348;20.928;2023-03-14T08:49:04;9.18;;;4.47;;
35326;SDS011;21436;52.348;20.928;2023-03-14T08:51:32;7.25;;;3.75;;
35326;SDS011;21436;52.348;20.928;2023-03-14T08:54:00;7.45;;;3.58;;
35326;SDS011;21436;52.348;20.928;2023-03-14T08:56:28;9.35;;;4.18;;
35326;SDS011;21436;52.348;20.928;2023-03-14T08:58:55;13.43;;;4.38;;
35326;SDS011;21436;52.348;20.928;2023-03-14T09:01:24;5.93;;;3.72;;
35326;SDS011;21436;52.348;20.928;2023-03-14T09:03:53;9.07;;;4.13;;
35326;SDS011;21436;52.348;20.928;2023-03-14T09:06:21;15.93;;;4.72;;
35326;SDS011;21436;52.348;20.928;2023-03-14T09:08:49;15.98;;;5.10;;
35326;SDS011;21436;52.348;20.928;2023-03-14T09:11:18;14.02;;;5.03;;
35326;SDS011;21436;52.348;20.928;2023-03-14T09:13:46;14.38;;;5.93;;
35326;SDS011;21436;52.348;20.928;2023-03-14T09:16:14;12.60;;;5.20;;
35326;SDS011;21436;52.348;20.928;2023-03-14T09:18:43;10.80;;;4.95;;
35326;SDS011;21436;52.348;20.928;2023-03-14T09:23:44;9.10;;;4.30;;
35326;SDS011;21436;52.348;20.928;2023-03-14T09:26:13;9.68;;;4.20;;
35326;SDS011;21436;52.348;20.928;2023-03-14T09:28:41;7.95;;;4.43;;
35326;SDS011;21436;52.348;20.928;2023-03-14T09:31:10;5.72;;;4.05;;
35326;SDS011;21436;52.348;20.928;2023-03-14T09:33:38;10.45;;;4.20;;
35326;SDS011;21436;52.348;20.928;2023-03-14T09:36:06;9.55;;;3.83;;
35326;SDS011;21436;52.348;20.928;2023-03-14T09:38:35;11.27;;;4.25;;
35326;SDS011;21436;52.348;20.928;2023-03-14T09:41:10;10.20;;;4.05;;
35326;SDS011;21436;52.348;20.928;2023-03-14T09:43:44;7.35;;;3.83;;
35326;SDS011;21436;52.348;20.928;2023-03-14T09:46:14;6.20;;;3.60;;
35326;SDS011;21436;52.348;20.928;2023-03-14T09:48:42;7.38;;;3.55;;
35326;SDS011;21436;52.348;20.928;2023-03-14T09:51:15;5.85;;;3.67;;
35326;SDS011;21436;52.348;20.928;2023-03-14T09:53:46;7.75;;;3.97;;
35326;SDS011;21436;52.348;20.928;2023-03-14T09:56:23;8.63;;;3.60;;
35326;SDS011;21436;52.348;20.928;2023-03-14T09:58:54;7.97;;;3.38;;
35326;SDS011;21436;52.348;20.928;2023-03-14T10:01:28;9.18;;;3.80;;
35326;SDS011;21436;52.348;20.928;2023-03-14T10:04:21;8.45;;;4.20;;
35326;SDS011;21436;52.348;20.928;2023-03-14T10:06:50;7.47;;;3.90;;
35326;SDS011;21436;52.348;20.928;2023-03-14T10:09:19;6.97;;;3.83;;
35326;SDS011;21436;52.348;20.928;2023-03-14T10:11:57;8.88;;;3.67;;
35326;SDS011;21436;52.348;20.928;2023-03-14T10:14:36;8.27;;;3.30;;
35326;SDS011;21436;52.348;20.928;2023-03-14T10:17:10;6.45;;;3.88;;
35326;SDS011;21436;52.348;20.928;2023-03-14T10:19:53;5.90;;;3.92;;
35326;SDS011;21436;52.348;20.928;2023-03-14T10:22:28;6.88;;;3.75;;
35326;SDS011;21436;52.348;20.928;2023-03-14T10:25:02;10.40;;;4.20;;
35326;SDS011;21436;52.348;20.928;2023-03-14T10:27:33;7.78;;;3.70;;
35326;SDS011;21436;52.348;20.928;2023-03-14T10:30:06;8.27;;;3.60;;
35326;SDS011;21436;52.348;20.928;2023-03-14T10:32:37;8.02;;;3.83;;
35326;SDS011;21436;52.348;20.928;2023-03-14T10:35:27;6.93;;;4.00;;
35326;SDS011;21436;52.348;20.928;2023-03-14T10:37:59;6.60;;;3.13;;
35326;SDS011;21436;52.348;20.928;2023-03-14T10:40:32;6.68;;;3.72;;
35326;SDS011;21436;52.348;20.928;2023-03-14T10:43:03;11.38;;;3.30;;
35326;SDS011;21436;52.348;20.928;2023-03-14T10:45:42;6.95;;;3.25;;
35326;SDS011;21436;52.348;20.928;2023-03-14T10:48:17;5.85;;;3.67;;
35326;SDS011;21436;52.348;20.928;2023-03-14T10:53:38;8.80;;;3.72;;
35326;SDS011;21436;52.348;20.928;2023-03-14T10:56:17;8.10;;;3.75;;
35326;SDS011;21436;52.348;20.928;2023-03-14T10:58:51;6.22;;;3.70;;
35326;SDS011;21436;52.348;20.928;2023-03-14T11:15:40;10.30;;;4.45;;
35326;SDS011;21436;52.348;20.928;2023-03-14T11:21:21;6.22;;;3.83;;
35326;SDS011;21436;52.348;20.928;2023-03-14T11:24:00;9.50;;;4.07;;
35326;SDS011;21436;52.348;20.928;2023-03-14T11:32:12;7.03;;;4.05;;
35326;SDS011;21436;52.348;20.928;2023-03-14T11:35:01;8.55;;;3.80;;
35326;SDS011;21436;52.348;20.928;2023-03-14T11:37:33;9.05;;;3.90;;
35326;SDS011;21436;52.348;20.928;2023-03-14T11:40:10;10.35;;;4.15;;
35326;SDS011;21436;52.348;20.928;2023-03-14T11:42:43;6.53;;;3.80;;
35326;SDS011;21436;52.348;20.928;2023-03-14T11:45:23;11.40;;;4.35;;
35326;SDS011;21436;52.348;20.928;2023-03-14T11:50:53;9.15;;;4.88;;
35326;SDS011;21436;52.348;20.928;2023-03-14T11:53:28;7.53;;;4.05;;
35326;SDS011;21436;52.348;20.928;2023-03-14T11:56:04;6.93;;;4.32;;
35326;SDS011;21436;52.348;20.928;2023-03-14T11:58:45;13.45;;;4.72;;
35326;SDS011;21436;52.348;20.928;2023-03-14T12:01:19;9.88;;;4.85;;
35326;SDS011;21436;52.348;20.928;2023-03-14T12:03:57;13.10;;;4.60;;
35326;SDS011;21436;52.348;20.928;2023-03-14T12:06:50;8.32;;;4.68;;
35326;SDS011;21436;52.348;20.928;2023-03-14T12:09:19;14.93;;;4.95;;
35326;SDS011;21436;52.348;20.928;2023-03-14T12:14:32;6.85;;;4.22;;
35326;SDS011;21436;52.348;20.928;2023-03-14T12:19:45;12.43;;;4.63;;
35326;SDS011;21436;52.348;20.928;2023-03-14T12:22:27;8.45;;;4.97;;
35326;SDS011;21436;52.348;20.928;2023-03-14T12:25:00;9.63;;;5.23;;
35326;SDS011;21436;52.348;20.928;2023-03-14T12:30:23;8.65;;;5.07;;
35326;SDS011;21436;52.348;20.928;2023-03-14T12:35:49;8.30;;;5.38;;
35326;SDS011;21436;52.348;20.928;2023-03-14T12:44:43;10.93;;;5.10;;
35326;SDS011;21436;52.348;20.928;2023-03-14T12:49:49;10.05;;;5.30;;
35326;SDS011;21436;52.348;20.928;2023-03-14T12:52:21;8.95;;;5.07;;
35326;SDS011;21436;52.348;20.928;2023-03-14T12:57:40;10.57;;;5.72;;
35326;SDS011;21436;52.348;20.928;2023-03-14T13:03:17;13.20;;;6.00;;
35326;SDS011;21436;52.348;20.928;2023-03-14T13:05:56;14.15;;;5.85;;
35326;SDS011;21436;52.348;20.928;2023-03-14T13:08:33;10.27;;;5.85;;
35326;SDS011;21436;52.348;20.928;2023-03-14T13:11:24;12.25;;;6.18;;
35326;SDS011;21436;52.348;20.928;2023-03-14T13:13:56;15.52;;;6.72;;
35326;SDS011;21436;52.348;20.928;2023-03-14T13:16:24;14.27;;;7.38;;
35326;SDS011;21436;52.348;20.928;2023-03-14T13:19:00;17.13;;;6.88;;
35326;SDS011;21436;52.348;20.928;2023-03-14T13:21:38;16.30;;;6.85;;
35326;SDS011;21436;52.348;20.928;2023-03-14T13:24:17;13.68;;;7.07;;
35326;SDS011;21436;52.348;20.928;2023-03-14T13:26:53;16.83;;;7.32;;
35326;SDS011;21436;52.348;20.928;2023-03-14T13:29:25;15.07;;;7.93;;
35326;SDS011;21436;52.348;20.928;2023-03-14T13:31:56;12.85;;;6.82;;
35326;SDS011;21436;52.348;20.928;2023-03-14T13:34:29;12.32;;;7.28;;
35326;SDS011;21436;52.348;20.928;2023-03-14T13:36:58;17.08;;;8.05;;
35326;SDS011;21436;52.348;20.928;2023-03-14T13:39:27;16.75;;;8.07;;
35326;SDS011;21436;52.348;20.928;2023-03-14T13:42:00;13.50;;;7.60;;
35326;SDS011;21436;52.348;20.928;2023-03-14T13:44:36;15.82;;;8.40;;
35326;SDS011;21436;52.348;20.928;2023-03-14T13:47:09;18.98;;;8.00;;
35326;SDS011;21436;52.348;20.928;2023-03-14T13:49:41;17.02;;;8.15;;
35326;SDS011;21436;52.348;20.928;2023-03-14T13:52:43;13.35;;;8.02;;
35326;SDS011;21436;52.348;20.928;2023-03-14T13:55:05;17.75;;;8.02;;
35326;SDS011;21436;52.348;20.928;2023-03-14T13:57:48;14.25;;;8.07;;
35326;SDS011;21436;52.348;20.928;2023-03-14T14:00:23;15.77;;;8.40;;
35326;SDS011;21436;52.348;20.928;2023-03-14T14:02:57;13.50;;;8.00;;
35326;SDS011;21436;52.348;20.928;2023-03-14T14:05:27;14.82;;;8.05;;
35326;SDS011;21436;52.348;20.928;2023-03-14T14:07:55;12.48;;;7.22;;
35326;SDS011;21436;52.348;20.928;2023-03-14T14:10:25;15.23;;;7.95;;
35326;SDS011;21436;52.348;20.928;2023-03-14T14:12:59;17.33;;;8.63;;
35326;SDS011;21436;52.348;20.928;2023-03-14T14:15:29;17.90;;;8.95;;
35326;SDS011;21436;52.348;20.928;2023-03-14T14:18:01;14.23;;;7.82;;
35326;SDS011;21436;52.348;20.928;2023-03-14T14:20:35;12.35;;;7.93;;
35326;SDS011;21436;52.348;20.928;2023-03-14T14:23:09;19.10;;;8.65;;
35326;SDS011;21436;52.348;20.928;2023-03-14T14:25:39;14.02;;;8.45;;
35326;SDS011;21436;52.348;20.928;2023-03-14T14:31:38;13.95;;;7.55;;
35326;SDS011;21436;52.348;20.928;2023-03-14T14:33:54;15.10;;;8.40;;
35326;SDS011;21436;52.348;20.928;2023-03-14T14:36:24;13.23;;;8.00;;
35326;SDS011;21436;52.348;20.928;2023-03-14T14:41:48;14.40;;;7.55;;
35326;SDS011;21436;52.348;20.928;2023-03-14T14:44:18;13.35;;;7.90;;
35326;SDS011;21436;52.348;20.928;2023-03-14T14:46:53;14.52;;;8.30;;
35326;SDS011;21436;52.348;20.928;2023-03-14T14:49:27;24.15;;;11.80;;
35326;SDS011;21436;52.348;20.928;2023-03-14T14:52:04;22.02;;;11.63;;
35326;SDS011;21436;52.348;20.928;2023-03-14T14:54:37;19.50;;;9.63;;
35326;SDS011;21436;52.348;20.928;2023-03-14T14:57:23;18.65;;;8.60;;
35326;SDS011;21436;52.348;20.928;2023-03-14T15:02:30;18.45;;;9.02;;
35326;SDS011;21436;52.348;20.928;2023-03-14T15:05:13;15.82;;;8.73;;
35326;SDS011;21436;52.348;20.928;2023-03-14T15:07:43;18.30;;;9.88;;
35326;SDS011;21436;52.348;20.928;2023-03-14T15:10:12;20.40;;;10.30;;
35326;SDS011;21436;52.348;20.928;2023-03-14T15:12:42;21.55;;;10.38;;
35326;SDS011;21436;52.348;20.928;2023-03-14T15:15:11;22.08;;;10.88;;
35326;SDS011;21436;52.348;20.928;2023-03-14T15:17:39;19.77;;;10.70;;
35326;SDS011;21436;52.348;20.928;2023-03-14T15:20:11;17.67;;;10.13;;
35326;SDS011;21436;52.348;20.928;2023-03-14T15:22:42;21.50;;;9.73;;
35326;SDS011;21436;52.348;20.928;2023-03-14T15:25:10;16.42;;;10.57;;
35326;SDS011;21436;52.348;20.928;2023-03-14T15:27:59;15.70;;;8.82;;
35326;SDS011;21436;52.348;20.928;2023-03-14T15:30:27;15.40;;;8.98;;
35326;SDS011;21436;52.348;20.928;2023-03-14T15:32:55;19.05;;;9.68;;
35326;SDS011;21436;52.348;20.928;2023-03-14T15:35:23;16.35;;;10.32;;
35326;SDS011;21436;52.348;20.928;2023-03-14T15:37:52;14.63;;;8.40;;
35326;SDS011;21436;52.348;20.928;2023-03-14T15:40:21;13.25;;;7.88;;
35326;SDS011;21436;52.348;20.928;2023-03-14T15:42:51;14.02;;;8.73;;
35326;SDS011;21436;52.348;20.928;2023-03-14T15:45:19;18.70;;;8.48;;
35326;SDS011;21436;52.348;20.928;2023-03-14T15:47:48;14.52;;;8.43;;
35326;SDS011;21436;52.348;20.928;2023-03-14T15:50:16;13.93;;;8.02;;
35326;SDS011;21436;52.348;20.928;2023-03-14T15:52:46;14.25;;;8.00;;
35326;SDS011;21436;52.348;20.928;2023-03-14T15:55:14;19.98;;;8.65;;
35326;SDS011;21436;52.348;20.928;2023-03-14T15:57:44;15.05;;;8.57;;
35326;SDS011;21436;52.348;20.928;2023-03-14T16:00:13;13.05;;;8.15;;
35326;SDS011;21436;52.348;20.928;2023-03-14T16:02:45;11.35;;;7.07;;
35326;SDS011;21436;52.348;20.928;2023-03-14T16:05:13;12.75;;;7.50;;
35326;SDS011;21436;52.348;20.928;2023-03-14T16:07:42;12.45;;;7.50;;
35326;SDS011;21436;52.348;20.928;2023-03-14T16:10:10;19.27;;;8.23;;
35326;SDS011;21436;52.348;20.928;2023-03-14T16:12:40;13.57;;;7.40;;
35326;SDS011;21436;52.348;20.928;2023-03-14T16:15:08;13.30;;;7.65;;
35326;SDS011;21436;52.348;20.928;2023-03-14T16:17:37;14.15;;;7.43;;
35326;SDS011;21436;52.348;20.928;2023-03-14T16:20:07;15.10;;;8.25;;
35326;SDS011;21436;52.348;20.928;2023-03-14T16:22:36;14.57;;;7.50;;
35326;SDS011;21436;52.348;20.928;2023-03-14T16:25:05;16.38;;;7.88;;